createdAt,value
2019-05-03T00:02:23.059Z,99.90
2019-05-03T00:05:02.813Z,99.90
2019-05-03T00:07:31.796Z,99.90
2019-05-03T00:10:02.741Z,99.90
2019-05-03T00:12:32.637Z,99.80
2019-05-03T00:15:03.140Z,99.80
2019-05-03T00:17:32.488Z,99.80
2019-05-03T00:20:02.311Z,99.70
2019-05-03T00:22:32.316Z,99.70
2019-05-03T00:25:06.042Z,99.70
2019-05-03T00:27:32.274Z,99.70
2019-05-03T00:30:02.839Z,99.50
2019-05-03T00:32:32.141Z,99.60
2019-05-03T00:35:08.182Z,99.70
2019-05-03T00:37:38.466Z,99.70
2019-05-03T00:40:09.367Z,99.70
2019-05-03T00:42:38.131Z,99.70
2019-05-03T00:45:09.829Z,99.70
2019-05-03T00:47:38.462Z,99.70
2019-05-03T00:50:07.514Z,99.80
2019-05-03T00:52:36.197Z,99.90
2019-05-03T00:55:16.316Z,99.90
2019-05-03T00:57:37.142Z,99.90
2019-05-03T01:00:07.772Z,99.90
2019-05-03T01:02:36.508Z,99.90
2019-05-03T01:05:06.893Z,99.90
2019-05-03T01:07:35.508Z,99.90
2019-05-03T01:10:06.139Z,99.90
2019-05-03T01:12:34.942Z,99.90
2019-05-03T01:15:06.450Z,99.90
2019-05-03T01:17:36.138Z,99.90
2019-05-03T01:20:08.474Z,99.90
2019-05-03T01:22:37.214Z,99.90
2019-05-03T01:25:07.046Z,99.90
2019-05-03T01:27:35.814Z,99.90
2019-05-03T01:30:08.525Z,99.90
2019-05-03T01:32:37.277Z,99.90
2019-05-03T01:35:07.512Z,99.90
2019-05-03T01:37:36.125Z,99.90
2019-05-03T01:40:07.153Z,99.90
2019-05-03T01:42:35.855Z,99.90
2019-05-03T01:45:06.424Z,99.90
2019-05-03T01:47:42.332Z,99.90
2019-05-03T01:50:15.733Z,99.90
2019-05-03T01:52:46.384Z,99.90
2019-05-03T01:55:15.968Z,99.90
2019-05-03T01:57:44.697Z,99.90
2019-05-03T02:00:15.732Z,99.90
2019-05-03T02:02:57.909Z,99.90
2019-05-03T02:05:44.183Z,99.90
2019-05-03T02:08:14.231Z,99.90
2019-05-03T02:10:43.879Z,99.90
2019-05-03T02:13:12.482Z,99.90
2019-05-03T02:15:42.221Z,99.90
2019-05-03T02:18:14.761Z,99.90
2019-05-03T02:20:41.883Z,99.90
2019-05-03T02:23:11.880Z,99.90
2019-05-03T02:25:41.872Z,99.90
2019-05-03T02:28:12.478Z,99.90
2019-05-03T02:30:43.968Z,99.90
2019-05-03T02:33:13.485Z,99.90
2019-05-03T02:35:43.016Z,99.90
2019-05-03T02:38:13.010Z,99.90
2019-05-03T02:40:43.081Z,99.90
2019-05-03T02:43:29.542Z,99.90
2019-05-03T02:46:16.712Z,99.90
2019-05-03T02:48:59.382Z,99.90
2019-05-03T02:51:28.034Z,99.90
2019-05-03T02:53:57.232Z,99.90
2019-05-03T02:56:26.413Z,99.90
2019-05-03T02:58:55.932Z,99.90
2019-05-03T03:01:26.486Z,99.90
2019-05-03T03:03:56.918Z,99.90
2019-05-03T03:06:27.258Z,99.90
2019-05-03T03:08:58.558Z,99.90
2019-05-03T03:11:30.197Z,99.90
2019-05-03T03:13:59.602Z,99.90
2019-05-03T03:16:30.260Z,99.90
2019-05-03T03:19:02.242Z,99.90
2019-05-03T03:21:36.093Z,99.90
2019-05-03T03:24:10.288Z,99.90
2019-05-03T03:26:43.239Z,99.90
2019-05-03T03:29:12.157Z,99.90
2019-05-03T03:31:57.331Z,99.90
2019-05-03T03:34:28.748Z,99.90
2019-05-03T03:37:04.378Z,99.90
2019-05-03T03:39:27.927Z,99.90
2019-05-03T03:41:57.176Z,99.90
2019-05-03T03:44:26.878Z,99.90
2019-05-03T03:46:57.242Z,99.90
2019-05-03T03:49:29.447Z,99.90
2019-05-03T03:52:00.475Z,99.90
2019-05-03T03:54:35.269Z,99.90
2019-05-03T03:57:07.880Z,99.90
2019-05-03T03:59:36.316Z,99.90
2019-05-03T04:02:05.994Z,99.90
2019-05-03T04:04:35.738Z,99.90
2019-05-03T04:07:06.561Z,99.90
2019-05-03T04:09:36.645Z,99.90
2019-05-03T04:12:06.369Z,99.90
2019-05-03T04:14:37.956Z,99.90
2019-05-03T04:17:26.115Z,99.90
2019-05-03T04:19:56.888Z,99.90
2019-05-03T04:22:25.671Z,99.90
2019-05-03T04:24:55.360Z,99.90
2019-05-03T04:27:27.216Z,99.90
2019-05-03T04:29:55.721Z,99.90
2019-05-03T04:32:28.422Z,99.90
2019-05-03T04:34:56.031Z,99.90
2019-05-03T04:37:26.592Z,99.90
2019-05-03T04:39:56.114Z,99.90
2019-05-03T04:42:25.446Z,99.90
2019-05-03T04:44:56.264Z,99.90
2019-05-03T04:47:26.293Z,99.90
2019-05-03T04:49:55.615Z,99.90
2019-05-03T04:52:25.978Z,99.90
2019-05-03T04:54:56.919Z,99.90
2019-05-03T04:57:36.567Z,99.90
2019-05-03T04:59:56.539Z,99.90
2019-05-03T05:02:26.251Z,99.90
2019-05-03T05:04:55.668Z,99.90
2019-05-03T05:07:26.013Z,99.90
2019-05-03T05:09:56.131Z,99.90
2019-05-03T05:12:25.507Z,99.90
2019-05-03T05:14:56.358Z,99.90
2019-05-03T05:17:28.985Z,99.90
2019-05-03T05:19:59.278Z,99.90
2019-05-03T05:22:29.477Z,99.90
2019-05-03T05:24:58.893Z,99.90
2019-05-03T05:27:29.463Z,99.90
2019-05-03T05:29:58.799Z,99.90
2019-05-03T05:32:27.727Z,99.90
2019-05-03T05:34:56.489Z,99.90
2019-05-03T05:37:25.229Z,99.90
2019-05-03T05:39:55.066Z,99.90
2019-05-03T05:42:25.110Z,99.90
2019-05-03T05:44:55.523Z,99.90
2019-05-03T05:47:28.428Z,99.90
2019-05-03T05:49:58.623Z,99.90
2019-05-03T05:52:27.201Z,99.90
2019-05-03T05:54:57.745Z,99.90
2019-05-03T05:57:27.973Z,99.90
2019-05-03T05:59:58.186Z,99.90
2019-05-03T06:02:26.825Z,99.90
2019-05-03T06:04:55.675Z,99.50
2019-05-03T06:07:37.725Z,99.20
2019-05-03T06:10:09.080Z,99.30
2019-05-03T06:12:45.439Z,99.30
2019-05-03T06:15:15.817Z,99.10
2019-05-03T06:17:46.016Z,99.00
2019-05-03T06:20:24.532Z,98.60
2019-05-03T06:23:00.853Z,98.50
2019-05-03T06:25:31.105Z,98.50
2019-05-03T06:28:01.017Z,98.60
2019-05-03T06:30:31.393Z,98.50
2019-05-03T06:33:00.031Z,98.40
2019-05-03T06:35:28.798Z,97.90
2019-05-03T06:37:57.436Z,98.00
2019-05-03T06:40:26.182Z,97.90
2019-05-03T06:43:09.071Z,97.80
2019-05-03T06:45:32.746Z,97.60
2019-05-03T06:48:01.313Z,97.50
2019-05-03T06:50:29.897Z,96.80
2019-05-03T06:52:59.896Z,96.50
2019-05-03T06:55:29.063Z,95.90
2019-05-03T06:57:57.655Z,95.30
2019-05-03T07:00:30.413Z,95.20
2019-05-03T07:03:19.121Z,94.80
2019-05-03T07:05:49.321Z,94.40
2019-05-03T07:08:19.628Z,94.10
2019-05-03T07:10:54.843Z,94.20
2019-05-03T07:13:23.075Z,94.20
2019-05-03T07:15:51.631Z,94.10
2019-05-03T07:18:20.483Z,93.60
2019-05-03T07:20:56.473Z,93.30
2019-05-03T07:23:24.497Z,93.30
2019-05-03T07:25:55.034Z,92.90
2019-05-03T07:28:24.797Z,91.80
2019-05-03T07:30:54.424Z,91.50
2019-05-03T07:33:25.466Z,91.10
2019-05-03T07:35:54.756Z,90.50
2019-05-03T07:38:24.825Z,90.60
2019-05-03T07:40:54.948Z,89.40
2019-05-03T07:43:24.504Z,88.60
2019-05-03T07:45:55.094Z,88.80
2019-05-03T07:48:25.474Z,89.20
2019-05-03T07:50:54.711Z,88.40
2019-05-03T07:53:25.191Z,88.10
2019-05-03T07:56:01.136Z,88.00
2019-05-03T07:58:31.075Z,88.10
2019-05-03T08:01:09.397Z,88.40
2019-05-03T08:03:34.875Z,88.10
2019-05-03T08:06:04.873Z,88.00
2019-05-03T08:08:35.435Z,88.40
2019-05-03T08:11:05.286Z,88.20
2019-05-03T08:13:35.542Z,87.70
2019-05-03T08:16:05.893Z,87.70
2019-05-03T08:18:35.502Z,86.80
2019-05-03T08:21:05.577Z,87.00
2019-05-03T08:23:35.304Z,85.80
2019-05-03T08:26:05.790Z,86.30
2019-05-03T08:28:34.771Z,86.90
2019-05-03T08:31:23.775Z,87.00
2019-05-03T08:33:58.720Z,86.80
2019-05-03T08:36:27.289Z,85.60
2019-05-03T08:38:56.575Z,87.00
2019-05-03T08:41:26.780Z,86.90
2019-05-03T08:43:56.177Z,86.00
2019-05-03T08:46:25.348Z,86.10
2019-05-03T08:48:54.787Z,84.80
2019-05-03T08:51:24.952Z,86.10
2019-05-03T08:53:55.751Z,85.20
2019-05-03T08:56:24.583Z,83.40
2019-05-03T08:58:55.319Z,80.80
2019-05-03T09:01:25.106Z,83.00
2019-05-03T09:03:55.748Z,81.50
2019-05-03T09:06:24.785Z,79.10
2019-05-03T09:08:56.871Z,80.20
2019-05-03T09:11:31.867Z,81.10
2019-05-03T09:14:01.487Z,80.80
2019-05-03T09:16:30.115Z,80.90
2019-05-03T09:18:58.856Z,78.80
2019-05-03T09:21:27.516Z,77.50
2019-05-03T09:23:56.079Z,78.60
2019-05-03T09:26:28.861Z,78.50
2019-05-03T09:28:55.638Z,75.90
2019-05-03T09:31:24.734Z,76.60
2019-05-03T09:33:54.787Z,75.90
2019-05-03T09:36:25.287Z,75.50
2019-05-03T09:38:54.931Z,75.70
2019-05-03T09:41:25.662Z,76.40
2019-05-03T09:43:55.419Z,76.10
2019-05-03T09:46:26.328Z,75.30
2019-05-03T09:49:09.424Z,73.60
2019-05-03T09:51:25.522Z,74.20
2019-05-03T09:54:05.309Z,73.10
2019-05-03T09:56:57.526Z,72.00
2019-05-03T09:59:25.513Z,71.40
2019-05-03T10:01:54.846Z,69.70
2019-05-03T10:04:25.428Z,69.40
2019-05-03T10:06:54.880Z,68.70
2019-05-03T10:09:25.818Z,68.00
2019-05-03T10:11:55.176Z,70.00
2019-05-03T10:14:24.277Z,68.70
2019-05-03T10:17:10.296Z,68.00
2019-05-03T10:19:40.517Z,69.90
2019-05-03T10:22:09.208Z,70.00
2019-05-03T10:24:37.798Z,69.90
2019-05-03T10:27:06.426Z,69.60
2019-05-03T10:29:35.069Z,71.40
2019-05-03T10:32:17.467Z,72.30
2019-05-03T10:34:57.100Z,70.90
2019-05-03T10:37:35.860Z,67.90
2019-05-03T10:40:08.155Z,67.40
2019-05-03T10:42:37.047Z,68.90
2019-05-03T10:45:06.693Z,67.10
2019-05-03T10:47:35.343Z,68.60
2019-05-03T10:50:06.520Z,68.60
2019-05-03T10:52:39.284Z,67.70
2019-05-03T10:55:08.277Z,67.70
2019-05-03T10:57:38.496Z,68.10
2019-05-03T11:00:38.546Z,67.30
2019-05-03T11:02:57.381Z,64.30
2019-05-03T11:05:25.942Z,66.70
2019-05-03T11:07:55.607Z,67.90
2019-05-03T11:10:25.300Z,67.90
2019-05-03T11:12:54.781Z,64.90
2019-05-03T11:15:25.687Z,64.20
2019-05-03T11:17:54.916Z,64.40
2019-05-03T11:20:36.546Z,65.50
2019-05-03T11:23:07.173Z,64.60
2019-05-03T11:25:36.584Z,67.30
2019-05-03T11:28:13.600Z,65.90
2019-05-03T11:30:52.239Z,65.40
2019-05-03T11:33:20.182Z,66.40
2019-05-03T11:36:06.106Z,67.10
2019-05-03T11:38:36.331Z,66.90
2019-05-03T11:41:05.031Z,67.50
2019-05-03T11:43:35.014Z,68.40
2019-05-03T11:46:03.869Z,67.30
2019-05-03T11:48:34.751Z,65.50
2019-05-03T11:51:02.992Z,66.40
2019-05-03T11:53:31.552Z,66.40
2019-05-03T11:56:00.136Z,66.90
2019-05-03T11:58:28.725Z,66.60
2019-05-03T12:01:11.637Z,66.70
2019-05-03T12:03:31.042Z,66.00
2019-05-03T12:06:00.554Z,66.60
2019-05-03T12:08:29.187Z,67.10
2019-05-03T12:11:01.271Z,66.00
2019-05-03T12:13:29.628Z,66.80
2019-05-03T12:15:59.473Z,68.50
2019-05-03T12:18:28.564Z,68.70
2019-05-03T12:20:59.045Z,69.20
2019-05-03T12:23:30.956Z,69.90
2019-05-03T12:25:58.848Z,70.70
2019-05-03T12:28:28.095Z,70.90
2019-05-03T12:30:56.698Z,69.30
2019-05-03T12:33:25.984Z,70.00
2019-05-03T12:35:55.314Z,70.20
2019-05-03T12:38:25.540Z,71.20
2019-05-03T12:40:54.577Z,71.80
2019-05-03T12:43:25.488Z,71.60
2019-05-03T12:45:53.622Z,71.70
2019-05-03T12:48:22.208Z,69.80
2019-05-03T12:50:51.625Z,69.90
2019-05-03T12:53:22.026Z,69.70
2019-05-03T12:55:50.659Z,70.00
2019-05-03T12:58:19.318Z,69.90
2019-05-03T13:00:52.087Z,69.60
2019-05-03T13:03:31.141Z,70.00
2019-05-03T13:05:59.722Z,71.40
2019-05-03T13:08:37.202Z,71.50
2019-05-03T13:11:06.240Z,71.00
2019-05-03T13:13:35.911Z,71.00
2019-05-03T13:16:05.618Z,69.80
2019-05-03T13:18:35.202Z,68.40
2019-05-03T13:21:05.887Z,69.50
2019-05-03T13:23:35.439Z,69.40
2019-05-03T13:26:05.614Z,71.20
2019-05-03T13:28:34.547Z,72.10
2019-05-03T13:31:05.448Z,71.90
2019-05-03T13:33:34.808Z,71.60
2019-05-03T13:36:04.512Z,73.30
2019-05-03T13:38:35.081Z,72.60
2019-05-03T13:41:06.221Z,72.50
2019-05-03T13:43:34.832Z,73.30
2019-05-03T13:46:05.097Z,73.20
2019-05-03T13:48:44.595Z,74.20
2019-05-03T13:51:05.298Z,74.20
2019-05-03T13:53:34.857Z,75.00
2019-05-03T13:56:04.796Z,76.30
2019-05-03T13:58:35.586Z,77.70
2019-05-03T14:01:05.468Z,77.80
2019-05-03T14:03:35.262Z,79.10
2019-05-03T14:06:08.380Z,80.40
2019-05-03T14:08:34.985Z,79.90
2019-05-03T14:11:05.017Z,78.60
2019-05-03T14:13:35.363Z,77.50
2019-05-03T14:16:05.482Z,74.90
2019-05-03T14:18:35.346Z,73.00
2019-05-03T14:21:05.861Z,74.80
2019-05-03T14:23:36.097Z,74.20
2019-05-03T14:26:04.701Z,73.80
2019-05-03T14:28:34.619Z,74.30
2019-05-03T14:31:05.135Z,75.80
2019-05-03T14:33:35.316Z,76.30
2019-05-03T14:36:05.315Z,80.10
2019-05-03T14:38:33.926Z,80.70
2019-05-03T14:41:02.596Z,82.40
2019-05-03T14:43:31.144Z,81.60
2019-05-03T14:45:59.714Z,84.00
2019-05-03T14:48:28.311Z,82.80
2019-05-03T14:50:57.421Z,81.50
2019-05-03T14:53:26.228Z,81.10
2019-05-03T14:56:14.531Z,80.00
2019-05-03T14:58:59.711Z,80.60
2019-05-03T15:01:48.087Z,75.90
2019-05-03T15:04:16.668Z,73.80
2019-05-03T15:06:45.993Z,71.50
2019-05-03T15:09:18.890Z,71.10
2019-05-03T15:11:45.407Z,70.10
2019-05-03T15:14:14.552Z,63.60
2019-05-03T15:16:44.899Z,64.90
2019-05-03T15:19:14.812Z,64.70
2019-05-03T15:21:45.251Z,63.00
2019-05-03T15:24:14.577Z,62.20
2019-05-03T15:26:44.781Z,61.10
2019-05-03T15:29:15.428Z,63.50
2019-05-03T15:31:44.755Z,63.60
2019-05-03T15:34:15.106Z,63.30
2019-05-03T15:36:45.090Z,64.70
2019-05-03T15:39:15.390Z,65.40
2019-05-03T15:41:44.933Z,67.60
2019-05-03T15:44:18.023Z,69.30
2019-05-03T15:46:54.540Z,68.80
2019-05-03T15:49:26.996Z,70.10
2019-05-03T15:51:54.031Z,72.60
2019-05-03T15:54:24.661Z,73.80
2019-05-03T15:56:54.382Z,75.10
2019-05-03T15:59:24.387Z,75.10
2019-05-03T16:01:55.187Z,76.30
2019-05-03T16:04:25.050Z,75.20
2019-05-03T16:06:55.342Z,78.40
2019-05-03T16:09:24.611Z,78.30
2019-05-03T16:11:53.203Z,79.10
2019-05-03T16:14:21.870Z,78.70
2019-05-03T16:16:50.510Z,77.70
2019-05-03T16:19:19.411Z,76.50
2019-05-03T16:21:47.984Z,75.70
2019-05-03T16:24:16.626Z,75.20
2019-05-03T16:27:02.156Z,76.80
2019-05-03T16:29:30.764Z,77.60
2019-05-03T16:31:59.351Z,78.20
2019-05-03T16:34:27.932Z,78.00
2019-05-03T16:36:56.813Z,78.10
2019-05-03T16:39:26.892Z,77.20
2019-05-03T16:41:55.859Z,78.40
2019-05-03T16:44:24.454Z,79.60
2019-05-03T16:46:53.131Z,80.20
2019-05-03T16:49:21.699Z,80.30
2019-05-03T16:51:50.277Z,80.80
2019-05-03T16:54:18.860Z,81.00
2019-05-03T16:56:47.414Z,81.50
2019-05-03T16:59:17.373Z,81.90
2019-05-03T17:01:46.297Z,82.60
2019-05-03T17:04:28.655Z,83.20
2019-05-03T17:07:10.897Z,83.20
2019-05-03T17:09:41.176Z,84.60
2019-05-03T17:12:15.112Z,84.00
2019-05-03T17:14:44.057Z,84.70
2019-05-03T17:17:14.792Z,84.30
2019-05-03T17:19:44.687Z,85.70
2019-05-03T17:22:14.873Z,84.70
2019-05-03T17:24:44.440Z,85.20
2019-05-03T17:27:13.134Z,85.20
2019-05-03T17:29:41.741Z,84.90
2019-05-03T17:32:11.154Z,85.20
2019-05-03T17:34:39.837Z,85.40
2019-05-03T17:37:08.595Z,86.10
2019-05-03T17:39:41.333Z,85.90
2019-05-03T17:42:20.477Z,86.00
2019-05-03T17:44:50.578Z,85.60
2019-05-03T17:47:19.235Z,84.60
2019-05-03T17:49:47.833Z,84.60
2019-05-03T17:52:18.032Z,85.40
2019-05-03T17:54:48.231Z,84.70
2019-05-03T17:57:18.469Z,84.20
2019-05-03T17:59:48.686Z,84.10
2019-05-03T18:02:25.063Z,84.00
2019-05-03T18:05:11.529Z,84.90
2019-05-03T18:07:58.252Z,85.40
2019-05-03T18:10:28.375Z,86.10
2019-05-03T18:12:56.960Z,87.00
2019-05-03T18:15:25.540Z,88.10
2019-05-03T18:17:54.903Z,88.10
2019-05-03T18:20:25.467Z,88.50
2019-05-03T18:22:54.783Z,89.10
2019-05-03T18:25:24.821Z,89.60
2019-05-03T18:27:55.197Z,89.80
2019-05-03T18:30:23.997Z,90.30
2019-05-03T18:32:54.318Z,90.30
2019-05-03T18:35:23.091Z,90.70
2019-05-03T18:37:58.611Z,91.00
2019-05-03T18:40:27.818Z,91.40
2019-05-03T18:43:07.429Z,91.80
2019-05-03T18:45:54.531Z,92.00
2019-05-03T18:48:26.508Z,92.20
2019-05-03T18:50:55.320Z,92.70
2019-05-03T18:53:25.214Z,93.20
2019-05-03T18:55:55.203Z,93.20
2019-05-03T18:58:24.438Z,93.40
2019-05-03T19:00:54.765Z,93.70
2019-05-03T19:03:25.142Z,93.70
2019-05-03T19:05:55.621Z,94.10
2019-05-03T19:08:40.973Z,94.10
2019-05-03T19:11:15.093Z,94.20
2019-05-03T19:14:00.785Z,94.60
2019-05-03T19:16:30.987Z,94.60
2019-05-03T19:18:59.955Z,94.60
2019-05-03T19:21:28.603Z,94.80
2019-05-03T19:23:57.811Z,95.30
2019-05-03T19:26:26.391Z,95.30
2019-05-03T19:28:55.050Z,95.30
2019-05-03T19:31:25.132Z,95.50
2019-05-03T19:33:55.038Z,95.60
2019-05-03T19:36:23.778Z,95.80
2019-05-03T19:38:54.525Z,96.00
2019-05-03T19:41:23.261Z,96.30
2019-05-03T19:43:54.747Z,96.30
2019-05-03T19:46:24.813Z,96.50
2019-05-03T19:48:54.710Z,96.70
2019-05-03T19:51:23.733Z,97.20
2019-05-03T19:53:55.761Z,97.70
2019-05-03T19:56:25.629Z,97.30
2019-05-03T19:58:56.124Z,97.20
2019-05-03T20:01:26.441Z,97.60
2019-05-03T20:03:56.649Z,97.80
2019-05-03T20:06:29.390Z,97.60
2019-05-03T20:08:59.608Z,97.80
2019-05-03T20:11:28.188Z,98.00
2019-05-03T20:13:56.819Z,98.20
2019-05-03T20:16:25.494Z,98.40
2019-05-03T20:18:55.546Z,98.80
2019-05-03T20:21:25.268Z,99.10
2019-05-03T20:23:55.547Z,99.10
2019-05-03T20:26:25.287Z,99.20
2019-05-03T20:28:55.311Z,99.20
2019-05-03T20:31:25.300Z,99.30
2019-05-03T20:33:54.880Z,99.30
2019-05-03T20:36:23.540Z,99.40
2019-05-03T20:38:52.092Z,99.50
2019-05-03T20:41:20.680Z,99.60
2019-05-03T20:43:54.952Z,99.90
2019-05-03T20:46:26.214Z,99.90
2019-05-03T20:48:57.221Z,99.90
2019-05-03T20:51:25.807Z,99.90
2019-05-03T20:53:55.365Z,99.90
2019-05-03T20:56:24.626Z,99.90
2019-05-03T20:58:54.908Z,99.90
2019-05-03T21:01:25.670Z,99.90
2019-05-03T21:03:54.399Z,99.90
2019-05-03T21:06:34.872Z,99.90
2019-05-03T21:08:56.299Z,99.90
2019-05-03T21:11:25.156Z,99.90
2019-05-03T21:13:53.818Z,99.90
2019-05-03T21:16:26.203Z,99.90
2019-05-03T21:18:56.369Z,99.90
2019-05-03T21:21:29.267Z,99.90
2019-05-03T21:24:14.285Z,99.90
2019-05-03T21:26:45.045Z,99.90
2019-05-03T21:29:15.062Z,99.90
2019-05-03T21:31:44.512Z,99.90
2019-05-03T21:34:14.769Z,99.90
2019-05-03T21:36:45.209Z,99.90
2019-05-03T21:39:14.647Z,99.90
2019-05-03T21:41:45.082Z,99.90
2019-05-03T21:44:15.486Z,99.90
2019-05-03T21:46:45.726Z,99.90
2019-05-03T21:49:21.808Z,99.90
2019-05-03T21:51:50.413Z,99.90
2019-05-03T21:54:18.969Z,99.90
2019-05-03T21:56:47.567Z,99.90
2019-05-03T21:59:16.181Z,99.90
2019-05-03T22:01:46.496Z,99.90
2019-05-03T22:04:15.634Z,99.90
2019-05-03T22:06:44.524Z,99.90
2019-05-03T22:09:13.187Z,99.90
2019-05-03T22:11:41.830Z,99.90
2019-05-03T22:14:12.128Z,99.90
2019-05-03T22:16:45.033Z,99.90
2019-05-03T22:19:16.360Z,99.90
2019-05-03T22:21:45.746Z,99.90
2019-05-03T22:24:16.062Z,99.90
2019-05-03T22:27:04.865Z,99.90
2019-05-03T22:29:35.619Z,99.90
2019-05-03T22:32:05.328Z,99.90
2019-05-03T22:34:34.903Z,99.90
2019-05-03T22:37:04.097Z,99.90
2019-05-03T22:39:32.678Z,99.90
2019-05-03T22:42:01.319Z,99.90
2019-05-03T22:44:29.912Z,99.90
2019-05-03T22:46:58.633Z,99.90
2019-05-03T22:49:27.223Z,99.90
2019-05-03T22:51:55.789Z,99.90
2019-05-03T22:54:24.680Z,99.90
2019-05-03T22:56:55.237Z,99.90
2019-05-03T22:59:25.222Z,99.90
2019-05-03T23:01:54.637Z,99.90
2019-05-03T23:04:25.244Z,99.90
2019-05-03T23:06:55.548Z,99.90
2019-05-03T23:09:24.859Z,99.90
2019-05-03T23:11:55.301Z,99.90
2019-05-03T23:14:25.540Z,99.90
2019-05-03T23:16:54.276Z,99.90
2019-05-03T23:19:22.850Z,99.90
2019-05-03T23:21:59.149Z,99.90
2019-05-03T23:24:27.736Z,99.90
2019-05-03T23:26:56.316Z,99.90
2019-05-03T23:29:24.919Z,99.90
2019-05-03T23:31:53.494Z,99.90
2019-05-03T23:34:22.139Z,99.90
2019-05-03T23:36:50.687Z,99.90
2019-05-03T23:39:19.303Z,99.90
2019-05-03T23:41:47.861Z,99.90
2019-05-03T23:44:16.545Z,99.90
2019-05-03T23:46:49.283Z,99.90
2019-05-03T23:49:17.879Z,99.90
2019-05-03T23:51:51.531Z,99.90
2019-05-03T23:54:20.113Z,99.90
2019-05-03T23:56:49.188Z,99.90
2019-05-03T23:59:17.758Z,99.90
